Latest Weather Observations for Merriwa

IDN60801

Issued at 9:32 pm EST Thursday 22 June 2017 (issued every 30 minutes, with the page automatically refreshed every 10 minutes)

About weather observations | Map of weather stations | Latest weather observations for NSW | Other Formats
Station Details ID: 061287 Name: MERRIWA (ROSCOMMON) Lat: -32.19 Lon: 150.17 Height: 375.0 m
Data from the previous 72 hours. | See also: Recent months at Merriwa
Date/Time
EST
Temp
°C
App
Temp
°C
Dew
Point
°C
Rel
Hum
%
Delta-T
°C
Wind Press
QNH
hPa
Press
MSL
hPa
Rain since
9am
mm
Dir  Spd
km/h
Gust
km/h
Spd
kts
Gust
kts
22/09:30pm 3.6 0.9 2.4 92 0.5 SW 6 9 3 5 1024.7 1025.2 0.0
22/09:00pm 6.5 4.6 4.8 89 0.8 NNE 4 6 2 3 1024.8 1025.3 0.0
22/08:30pm 8.2 6.1 6.7 90 0.7 NNE 7 9 4 5 1024.7 1025.2 0.0
22/08:00pm 8.3 6.2 6.6 89 0.8 NNE 7 9 4 5 1024.8 1025.3 0.0
22/07:30pm 8.0 5.9 6.6 91 0.7 NNE 7 9 4 5 1024.7 1025.2 0.0
22/07:00pm 7.6 4.9 5.6 87 0.9 NNE 9 9 5 5 1024.7 1025.2 0.0
22/06:30pm 8.1 6.1 6.2 88 0.9 ENE 6 7 3 4 1024.7 1025.2 0.0
22/06:00pm 8.8 6.8 6.3 84 1.2 ENE 6 7 3 4 1024.7 1025.2 0.0
22/05:30pm 10.3 8.2 5.9 74 2.1 ENE 6 9 3 5 1024.5 1025.0 0.0
22/05:00pm 12.1 9.5 6.2 67 2.8 SE 9 11 5 6 1024.3 1024.8 0.0
22/04:30pm 15.0 12.6 7.1 59 4.0 SSE 9 11 5 6 1024.7 1025.2 0.0
22/04:00pm 16.4 14.4 7.1 54 4.7 SSE 7 9 4 5 1024.8 1025.3 0.0
22/03:30pm 16.9 15.1 7.0 52 5.0 ESE 6 9 3 5 1024.7 1025.2 0.0
22/03:00pm 17.1 15.2 6.9 51 5.1 NE 6 11 3 6 1024.6 1025.1 0.0
22/02:30pm 17.6 15.8 7.9 53 5.0 NE 7 17 4 9 1024.5 1025.0 0.0
22/02:00pm 17.1 14.9 7.7 54 4.8 E 9 17 5 9 1024.7 1025.2 0.0
22/01:30pm 16.6 14.1 8.3 58 4.3 E 11 17 6 9 1025.1 1025.6 0.0
22/01:00pm 16.3 13.6 9.0 62 3.8 E 13 20 7 11 1025.6 1026.2 0.0
22/12:30pm 15.6 13.0 9.5 67 3.2 E 13 20 7 11 1026.1 1026.6 0.0
22/12:00pm 14.9 12.4 9.7 71 2.7 ENE 13 20 7 11 1026.8 1027.3 0.0
22/11:30am 14.5 12.2 10.3 76 2.2 E 13 20 7 11 1027.5 1028.1 0.0
22/11:00am 12.7 10.1 9.5 81 1.6 E 13 17 7 9 1028.0 1028.6 0.0
22/10:30am 12.1 10.8 10.0 87 1.1 E 7 11 4 6 1028.7 1029.2 0.0
22/10:00am 10.1 9.8 10.1 100 0.0 SSE 2 7 1 4 1028.9 1029.4 0.0
22/09:45am 8.7 8.0 8.7 100 0.0 SW 2 7 1 4 1029.0 1029.5 0.0
22/09:30am 7.3 6.7 7.3 100 0.0 CALM 0 0 0 0 1029.0 1029.5 0.0
22/09:00am 5.9 5.0 5.9 100 0.0 CALM 0 0 0 0 1029.0 1029.5 0.0
22/08:30am 4.5 3.3 4.5 100 0.0 CALM 0 0 0 0 1028.7 1029.2 0.0
22/08:00am 1.7 0.0 1.7 100 0.0 CALM 0 0 0 0 1028.6 1029.1 0.0
22/07:30am 0.2 -1.8 0.1 99 0.0 CALM 0 0 0 0 1028.1 1028.7 0.0
22/07:00am 0.5 -1.4 0.4 99 0.0 CALM 0 0 0 0 1027.8 1028.4 0.0
22/06:30am 0.1 -1.9 0.0 99 0.0 CALM 0 0 0 0 1027.7 1028.3 0.0
22/06:00am 0.0 -2.0 -0.1 99 0.0 CALM 0 0 0 0 1027.4 1027.9 0.0
22/05:47am 1.6 -0.1 1.6 100 0.0 CALM 0 0 0 0 1027.2 1027.7 0.0
22/05:30am 1.3 -0.5 1.2 99 0.0 CALM 0 0 0 0 1027.0 1027.5 0.0
22/05:00am 1.1 -1.1 1.0 99 0.0 E 2 6 1 3 1026.9 1027.4 0.0
22/04:30am 1.1 -0.8 0.8 98 0.1 CALM 0 6 0 3 1026.8 1027.3 0.0
22/04:00am 1.7 -1.4 1.6 99 0.0 E 7 9 4 5 1026.7 1027.2 0.0
22/03:30am 2.7 1.1 2.6 99 0.0 CALM 0 0 0 0 1026.7 1027.2 0.0
22/03:00am 2.3 0.6 2.0 98 0.1 CALM 0 0 0 0 1026.7 1027.2 0.0
22/02:30am 3.0 1.5 2.9 99 0.0 CALM 0 0 0 0 1026.9 1027.4 0.0
22/02:00am 2.6 1.0 2.2 97 0.2 CALM 0 0 0 0 1026.9 1027.4 0.0
22/01:30am 3.6 1.7 3.0 96 0.2 ENE 2 7 1 4 1026.7 1027.2 0.0
22/01:00am 6.2 4.1 5.9 98 0.1 ENE 6 7 3 4 1026.8 1027.3 0.0
22/12:30am 6.7 4.7 6.4 98 0.1 NE 6 7 3 4 1026.8 1027.3 0.0
22/12:00am 6.1 3.8 5.5 96 0.3 NE 7 9 4 5 1027.0 1027.5 0.0
 
Date/Time
EST
Temp
°C
App
Temp
°C
Dew
Point
°C
Rel
Hum
%
Delta-T
°C
Wind Press
QNH
hPa
Press
MSL
hPa
Rain since
9am
mm
Dir  Spd
km/h
Gust
km/h
Spd
kts
Gust
kts
21/11:30pm 6.4 4.1 5.5 94 0.4 NE 7 7 4 4 1027.3 1027.8 0.0
21/11:00pm 6.8 4.7 5.6 92 0.5 NE 6 7 3 4 1027.6 1028.2 0.0
21/10:30pm 6.9 4.7 6.2 95 0.3 NE 7 7 4 4 1027.8 1028.4 0.0
21/10:00pm 6.4 4.2 5.2 92 0.5 E 6 7 3 4 1027.8 1028.4 0.0
21/09:30pm 7.1 4.8 5.7 91 0.6 E 7 9 4 5 1027.7 1028.3 0.0
21/09:00pm 7.5 5.5 6.4 93 0.5 E 6 7 3 4 1028.0 1028.6 0.0
21/08:30pm 6.5 4.2 4.8 89 0.8 E 6 6 3 3 1027.9 1028.5 0.0
21/08:00pm 5.8 3.4 4.3 90 0.7 E 6 7 3 4 1027.6 1028.2 0.0
21/07:30pm 6.4 3.5 4.4 87 0.9 ESE 9 9 5 5 1027.2 1027.7 0.0
21/07:00pm 7.4 4.9 5.0 85 1.1 ESE 7 9 4 5 1026.9 1027.4 0.0
21/06:30pm 8.4 6.2 6.2 86 1.0 E 7 9 4 5 1026.7 1027.2 0.0
21/06:00pm 7.9 5.5 4.1 77 1.7 ENE 6 11 3 6 1026.2 1026.7 0.0
21/05:30pm 9.6 6.6 4.2 69 2.4 E 9 13 5 7 1025.8 1026.3 0.0
21/05:00pm 12.6 8.7 5.5 62 3.4 E 15 20 8 11 1025.4 1026.0 0.0
21/04:30pm 14.4 10.8 5.0 53 4.5 E 13 19 7 10 1025.2 1025.8 0.0
21/04:00pm 15.6 11.0 5.5 51 4.9 E 19 26 10 14 1025.0 1025.5 0.0
21/03:30pm 16.7 12.7 4.7 45 5.8 E 15 20 8 11 1024.8 1025.3 0.0
21/03:00pm 17.4 13.2 3.7 40 6.5 E 15 22 8 12 1024.6 1025.1 0.0
21/02:30pm 17.3 12.5 2.5 37 6.9 E 17 22 9 12 1024.5 1025.0 0.0
21/02:00pm 17.7 13.7 2.8 37 6.9 E 13 20 7 11 1024.4 1024.9 0.0
21/01:30pm 17.1 12.2 1.9 36 7.0 SE 17 22 9 12 1024.7 1025.2 0.0
21/01:00pm 16.5 13.3 2.9 40 6.3 ESE 9 15 5 8 1024.9 1025.4 0.0
21/12:30pm 15.9 12.9 4.3 46 5.5 ESE 9 11 5 6 1025.1 1025.6 0.0
21/12:00pm 15.5 14.8 6.8 56 4.3 CALM 0 4 0 2 1025.4 1026.0 0.0
21/11:30am 14.7 12.9 7.0 60 3.8 SE 6 9 3 5 1025.9 1026.4 0.0
21/11:00am 13.3 11.5 7.1 66 3.1 WSW 6 9 3 5 1026.2 1026.7 0.0
21/10:30am 11.7 9.5 8.0 78 1.8 WSW 9 13 5 7 1026.4 1026.9 0.0
21/10:00am 10.8 8.0 8.6 86 1.1 W 13 17 7 9 1026.3 1026.8 0.0
21/09:30am 9.3 7.5 9.3 100 0.0 WSW 9 15 5 8 1026.3 1026.8 0.0
21/09:00am 7.1 5.7 7.1 100 0.0 SW 4 7 2 4 1025.9 1026.4 0.0
21/08:30am 4.1 2.8 4.1 100 0.0 CALM 0 0 0 0 1025.8 1026.3 0.0
21/08:20am 3.5 2.1 3.5 100 0.0 CALM 0 0 0 0 1025.4 1026.0 0.0
21/08:00am 1.4 -0.4 1.4 100 0.0 CALM 0 0 0 0 1025.3 1025.9 0.0
21/07:30am 0.4 -1.5 0.4 100 0.0 CALM 0 6 0 3 1025.2 1025.8 0.0
21/07:17am 0.3 -2.8 0.3 100 0.0 SSW 6 9 3 5 1025.2 1025.8 0.0
21/07:00am 0.7 -2.3 0.7 100 0.0 SW 6 11 3 6 1025.0 1025.5 0.0
21/06:30am 0.2 -3.1 0.1 99 0.0 WNW 7 9 4 5 1024.6 1025.1 0.0
21/06:00am 1.2 -1.7 1.2 100 0.0 WNW 6 9 3 5 1024.4 1024.9 0.0
21/05:30am 2.1 0.4 2.1 100 0.0 CALM 0 6 0 3 1024.2 1024.7 0.0
21/05:00am 1.1 -2.1 1.0 99 0.0 NW 7 11 4 6 1024.0 1024.5 0.0
21/04:30am 0.0 -2.8 -0.3 98 0.1 W 4 6 2 3 1024.0 1024.5 0.0
21/04:00am 2.7 1.1 2.7 100 0.0 CALM 0 6 0 3 1024.1 1024.6 0.0
21/03:30am 2.7 -0.2 2.7 100 0.0 NW 7 9 4 5 1024.1 1024.6 0.0
21/03:00am 3.9 0.9 3.9 100 0.0 WNW 9 9 5 5 1024.5 1025.0 0.0
21/02:30am 2.5 -0.8 2.4 99 0.0 W 9 11 5 6 1024.8 1025.3 0.0
21/02:00am 1.9 -1.0 1.6 98 0.1 W 6 9 3 5 1024.7 1025.2 0.0
21/01:30am 3.0 0.2 2.9 99 0.0 W 7 7 4 4 1024.9 1025.4 0.0
21/01:00am 3.5 0.7 3.4 99 0.0 W 7 11 4 6 1025.0 1025.5 0.0
21/12:30am 3.6 1.4 3.5 99 0.0 W 4 7 2 4 1025.2 1025.8 0.0
21/12:00am 4.2 1.6 4.1 99 0.0 W 7 7 4 4 1025.4 1026.0 0.0
 
Date/Time
EST
Temp
°C
App
Temp
°C
Dew
Point
°C
Rel
Hum
%
Delta-T
°C
Wind Press
QNH
hPa
Press
MSL
hPa
Rain since
9am
mm
Dir  Spd
km/h
Gust
km/h
Spd
kts
Gust
kts
20/11:30pm 4.1 1.5 4.0 99 0.0 W 7 9 4 5 1025.6 1026.2 0.0
20/11:00pm 4.6 2.1 4.5 99 0.0 W 7 9 4 5 1026.0 1026.5 0.0
20/10:30pm 4.8 3.6 4.5 98 0.1 CALM 0 0 0 0 1025.9 1026.4 0.0
20/10:00pm 4.8 2.8 4.2 96 0.3 ESE 4 7 2 4 1026.0 1026.5 0.0
20/09:30pm 5.8 4.8 5.5 98 0.1 CALM 0 0 0 0 1026.0 1026.5 0.0
20/09:00pm 6.3 5.4 5.9 97 0.2 CALM 0 0 0 0 1026.1 1026.6 0.0
20/08:30pm 6.6 5.6 5.7 94 0.4 CALM 0 0 0 0 1026.1 1026.6 0.0
20/08:00pm 8.2 7.6 7.3 94 0.4 CALM 0 0 0 0 1025.9 1026.4 0.0
20/07:30pm 8.6 8.1 7.8 95 0.4 CALM 0 0 0 0 1025.6 1026.2 0.0
20/07:00pm 8.8 8.3 7.9 94 0.4 CALM 0 0 0 0 1025.4 1026.0 0.0
20/06:30pm 8.7 8.0 7.0 89 0.8 CALM 0 0 0 0 1025.2 1025.8 0.0
20/06:00pm 9.1 8.3 6.5 84 1.2 CALM 0 6 0 3 1025.2 1025.8 0.0
20/05:30pm 11.4 9.5 7.5 77 1.9 ESE 7 7 4 4 1025.2 1025.8 0.0
20/05:00pm 13.1 10.5 7.8 70 2.6 SE 11 13 6 7 1025.0 1025.5 0.0
20/04:30pm 16.2 14.0 9.2 63 3.7 E 11 15 6 8 1025.0 1025.5 0.0
20/04:00pm 15.2 12.8 8.7 65 3.4 ESE 11 15 6 8 1024.9 1025.4 0.0
20/03:30pm 17.0 13.5 8.7 58 4.3 SE 17 22 9 12 1024.8 1025.3 0.0
20/03:00pm 17.8 15.2 9.2 57 4.6 E 13 19 7 10 1024.9 1025.4 0.0
20/02:30pm 16.5 12.4 8.7 60 4.1 SE 20 28 11 15 1025.0 1025.5 0.0
20/02:00pm 18.4 14.9 8.7 53 5.1 E 17 24 9 13 1024.9 1025.4 0.0
20/01:30pm 17.4 13.4 9.1 58 4.4 E 20 28 11 15 1025.3 1025.9 0.0
20/01:00pm 18.2 14.8 9.0 55 4.9 E 17 26 9 14 1025.6 1026.2 0.0
20/12:30pm 18.0 14.2 9.1 56 4.7 E 19 32 10 17 1026.0 1026.5 0.0
20/12:00pm 17.9 14.3 10.0 60 4.2 ESE 19 22 10 12 1026.6 1027.1 0.0
20/11:30am 17.2 14.4 10.1 63 3.8 ESE 15 22 8 12 1027.3 1027.8 0.0
20/11:00am 16.9 14.5 10.1 64 3.6 E 13 19 7 10 1027.7 1028.3 0.0
20/10:30am 16.0 13.3 10.3 69 3.1 E 15 22 8 12 1028.0 1028.6 0.0
20/10:00am 14.5 13.2 11.3 81 1.7 E 9 13 5 7 1028.2 1028.8 0.0
20/09:30am 13.4 12.2 11.5 88 1.0 SE 9 13 5 7 1028.3 1028.9 0.0
20/09:00am 12.5 11.4 11.9 96 0.3 ESE 9 15 5 8 1027.9 1028.5 0.0
20/08:30am 12.1 11.4 12.1 100 0.0 NE 7 11 4 6 1027.9 1028.5 0.0
20/08:00am 9.2 7.7 9.2 100 0.0 NE 7 7 4 4 1027.7 1028.3 0.0
20/07:30am 8.4 6.7 8.3 99 0.0 NE 7 9 4 5 1027.7 1028.3 0.0
20/07:00am 7.9 6.2 7.6 98 0.1 ENE 6 7 3 4 1027.5 1028.1 0.0
20/06:33am 8.9 7.3 8.6 98 0.1 ENE 7 9 4 5 1027.5 1028.1 0.0
20/06:30am 8.7 7.0 8.3 97 0.2 ENE 7 9 4 5 1027.4 1027.9 0.0
20/06:00am 9.7 8.4 9.2 97 0.3 E 6 7 3 4 1026.9 1027.4 0.0
20/05:58am 9.7 8.4 9.2 97 0.3 E 6 7 3 4 1026.9 1027.4 0.0
20/05:30am 10.1 9.0 9.8 98 0.2 E 6 7 3 4 1026.7 1027.2 0.0
20/05:20am 10.0 8.8 9.7 98 0.2 E 6 7 3 4 1026.6 1027.1 0.0
20/05:00am 10.0 8.6 9.5 97 0.3 E 7 9 4 5 1026.6 1027.1 0.0
20/04:35am 10.3 9.0 9.8 97 0.3 ESE 7 9 4 5 1026.7 1027.2 0.0
20/04:30am 10.3 8.9 9.7 96 0.3 ESE 7 9 4 5 1026.6 1027.1 0.0
20/04:28am 10.2 8.8 9.6 96 0.3 E 7 9 4 5 1026.6 1027.1 0.0
20/04:00am 11.2 9.7 10.7 97 0.3 ESE 9 11 5 6 1026.7 1027.2 0.0
20/03:30am 10.6 10.6 9.8 95 0.4 CALM 0 0 0 0 1027.0 1027.5 0.0
20/03:00am 11.3 10.4 10.7 96 0.3 ESE 6 7 3 4 1027.3 1027.8 0.0
20/02:44am 11.1 10.2 10.5 96 0.3 ESE 6 7 3 4 1027.4 1027.9 0.0
20/02:30am 11.2 9.7 10.7 97 0.3 ESE 9 9 5 5 1027.5 1028.1 0.0
20/02:00am 10.5 8.8 9.9 96 0.3 ESE 9 13 5 7 1027.5 1028.1 0.0
20/01:30am 10.7 8.6 9.9 95 0.4 ESE 11 15 6 8 1027.6 1028.2 0.0
20/01:00am 11.0 9.5 10.4 96 0.3 E 9 11 5 6 1027.7 1028.3 0.0
20/12:30am 11.2 9.3 10.6 96 0.3 E 11 15 6 8 1027.9 1028.5 0.0
20/12:00am 10.9 8.9 10.1 95 0.4 E 11 15 6 8 1028.0 1028.6 0.0
 
Date/Time
EST
Temp
°C
App
Temp
°C
Dew
Point
°C
Rel
Hum
%
Delta-T
°C
Wind Press
QNH
hPa
Press
MSL
hPa
Rain since
9am
mm
Dir  Spd
km/h
Gust
km/h
Spd
kts
Gust
kts
19/11:30pm 11.7 8.8 10.9 95 0.4 ESE 17 24 9 13 1028.1 1028.7 0.0
19/11:00pm 10.1 7.5 9.2 94 0.5 ESE 13 15 7 8 1028.3 1028.9 0.0
19/10:30pm 9.9 7.2 9.0 94 0.5 E 13 15 7 8 1028.3 1028.9 0.0
19/10:00pm 9.9 8.3 8.8 93 0.5 ENE 7 9 4 5 1028.4 1029.0 0.0

Other Formats:

Comma delimited format used in spreadsheet applications
http://www.bom.gov.au/fwo/IDN60801/IDN60801.95754.axf

JavaScript Object Notation format (JSON) in row-major order
http://www.bom.gov.au/fwo/IDN60801/IDN60801.95754.json